KMDH/MDH METAR and TAF weather

Enter ICAO airport designator
Station Type Date Time Source
KMDH METAR 2023/02/04 00:52 UTC NOAA

KMDH 040052Z 08003KT 10SM CLR M04/M11 A3058 RMK AO2 SLP362 T10391111


Station Type Date Time Source
KMDH Decoded METAR 2023/02/04 00:52 UTC NOAA

SOUTHERN ILLINOIS AIRPORT, IL, United States (KMDH) 37-47N 089-15W 130M
Feb 03, 2023 - 07:52 PM EST / 2023.02.04 0052 UTC
Wind: from the E (080 degrees) at 3 MPH (3 KT):0
Visibility: 10 mile(s):0
Sky conditions: clear
Temperature: 25.0 F (-3.9 C)
Dew Point: 12.0 F (-11.1 C)
Relative Humidity: 57%
Pressure (altimeter): 30.58 in. Hg (1035 hPa)
ob: KMDH 040052Z 08003KT 10SM CLR M04/M11 A3058 RMK AO2 SLP362 T10391111
cycle: 1

Station Type Date Time Source
KMDH TAF UTC NOAA

Error!

Example: see airport list